createdAt,value
2019-04-25T00:00:44.648Z,14.12
2019-04-25T00:01:44.783Z,14.11
2019-04-25T00:02:44.780Z,14.12
2019-04-25T00:03:44.781Z,14.08
2019-04-25T00:04:44.715Z,14.12
2019-04-25T00:05:44.758Z,14.15
2019-04-25T00:06:44.960Z,14.09
2019-04-25T00:07:44.961Z,14.05
2019-04-25T00:08:45.304Z,14.04
2019-04-25T00:09:45.256Z,14.00
2019-04-25T00:10:45.400Z,14.05
2019-04-25T00:11:46.654Z,13.97
2019-04-25T00:12:44.609Z,14.00
2019-04-25T00:13:44.479Z,14.03
2019-04-25T00:14:44.514Z,14.05
2019-04-25T00:15:45.802Z,14.04
2019-04-25T00:16:45.208Z,14.01
2019-04-25T00:17:44.541Z,14.03
2019-04-25T00:18:44.437Z,14.00
2019-04-25T00:19:44.430Z,14.01
2019-04-25T00:20:44.691Z,14.05
2019-04-25T00:21:44.640Z,14.03
2019-04-25T00:22:44.848Z,14.01
2019-04-25T00:23:44.983Z,13.91
2019-04-25T00:24:44.955Z,13.94
2019-04-25T00:25:46.737Z,14.01
2019-04-25T00:26:45.192Z,13.91
2019-04-25T00:27:45.980Z,13.90
2019-04-25T00:28:45.290Z,13.88
2019-04-25T00:29:45.703Z,13.86
2019-04-25T00:30:44.669Z,13.82
2019-04-25T00:31:45.100Z,13.80
2019-04-25T00:32:45.263Z,13.82
2019-04-25T00:33:45.303Z,13.78
2019-04-25T00:34:45.557Z,13.72
2019-04-25T00:35:44.659Z,13.73
2019-04-25T00:36:45.555Z,13.80
2019-04-25T00:37:45.479Z,13.75
2019-04-25T00:38:46.481Z,13.72
2019-04-25T00:39:45.315Z,13.67
2019-04-25T00:40:44.727Z,13.61
2019-04-25T00:41:46.048Z,13.61
2019-04-25T00:42:44.895Z,13.57
2019-04-25T00:43:44.161Z,13.58
2019-04-25T00:44:45.052Z,13.58
2019-04-25T00:45:44.563Z,13.51
2019-04-25T00:46:47.828Z,13.46
2019-04-25T00:47:44.728Z,13.40
2019-04-25T00:48:44.317Z,13.45
2019-04-25T00:49:45.191Z,13.43
2019-04-25T00:50:44.588Z,13.42
2019-04-25T00:51:44.542Z,13.32
2019-04-25T00:52:44.848Z,13.36
2019-04-25T00:53:44.634Z,13.29
2019-04-25T00:54:44.212Z,13.20
2019-04-25T00:55:44.347Z,13.23
2019-04-25T00:56:46.047Z,13.26
2019-04-25T00:57:44.783Z,13.23
2019-04-25T00:58:45.171Z,13.16
2019-04-25T00:59:45.359Z,13.21
2019-04-25T01:00:44.869Z,13.23
2019-04-25T01:01:45.196Z,13.14
2019-04-25T01:02:44.167Z,13.08
2019-04-25T01:03:44.503Z,13.16
2019-04-25T01:04:43.944Z,13.06
2019-04-25T01:05:44.462Z,13.09
2019-04-25T01:06:44.036Z,13.06
2019-04-25T01:07:44.381Z,13.08
2019-04-25T01:08:44.241Z,13.05
2019-04-25T01:09:44.311Z,13.02
2019-04-25T01:10:44.423Z,13.04
2019-04-25T01:11:44.330Z,13.05
2019-04-25T01:12:44.582Z,13.04
2019-04-25T01:13:44.576Z,12.96
2019-04-25T01:14:44.244Z,12.99
2019-04-25T01:15:44.830Z,12.98
2019-04-25T01:16:44.956Z,12.91
2019-04-25T01:17:45.258Z,12.88
2019-04-25T01:18:44.707Z,12.91
2019-04-25T01:19:44.966Z,12.96
2019-04-25T01:20:43.745Z,12.88
2019-04-25T01:21:43.997Z,12.91
2019-04-25T01:22:44.146Z,12.87
2019-04-25T01:23:43.718Z,12.81
2019-04-25T01:24:44.006Z,12.80
2019-04-25T01:25:44.669Z,12.79
2019-04-25T01:26:43.930Z,12.72
2019-04-25T01:27:43.671Z,12.72
2019-04-25T01:28:43.970Z,12.69
2019-04-25T01:29:44.494Z,12.69
2019-04-25T01:30:43.909Z,12.76
2019-04-25T01:31:43.605Z,12.66
2019-04-25T01:32:44.877Z,12.73
2019-04-25T01:33:43.578Z,12.73
2019-04-25T01:34:44.253Z,12.79
2019-04-25T01:35:44.886Z,12.71
2019-04-25T01:36:44.317Z,12.68
2019-04-25T01:37:43.866Z,12.76
2019-04-25T01:38:43.546Z,12.61
2019-04-25T01:39:44.167Z,12.69
2019-04-25T01:40:43.936Z,12.66
2019-04-25T01:41:44.168Z,12.62
2019-04-25T01:42:43.910Z,12.71
2019-04-25T01:43:43.746Z,12.69
2019-04-25T01:44:44.093Z,12.58
2019-04-25T01:45:43.859Z,12.47
2019-04-25T01:46:44.205Z,12.51
2019-04-25T01:47:45.420Z,12.48
2019-04-25T01:48:43.462Z,12.48
2019-04-25T01:49:43.918Z,12.46
2019-04-25T01:50:43.809Z,12.44
2019-04-25T01:51:43.778Z,12.48
2019-04-25T01:52:43.508Z,12.55
2019-04-25T01:53:44.124Z,12.47
2019-04-25T01:54:43.737Z,12.51
2019-04-25T01:55:53.609Z,12.47
2019-04-25T01:56:44.440Z,12.43
2019-04-25T01:57:43.736Z,12.47
2019-04-25T01:58:43.902Z,12.46
2019-04-25T01:59:43.880Z,12.48
2019-04-25T02:00:44.910Z,12.50
2019-04-25T02:01:44.023Z,12.47
2019-04-25T02:02:43.568Z,12.48
2019-04-25T02:03:44.197Z,12.48
2019-04-25T02:04:44.338Z,12.47
2019-04-25T02:05:43.851Z,12.46
2019-04-25T02:06:43.455Z,12.48
2019-04-25T02:07:44.415Z,12.46
2019-04-25T02:08:44.018Z,12.41
2019-04-25T02:09:43.613Z,12.43
2019-04-25T02:10:44.009Z,12.40
2019-04-25T02:11:43.929Z,12.36
2019-04-25T02:12:43.633Z,12.35
2019-04-25T02:13:43.798Z,12.40
2019-04-25T02:14:43.582Z,12.36
2019-04-25T02:15:43.341Z,12.29
2019-04-25T02:16:43.983Z,12.23
2019-04-25T02:17:43.983Z,12.25
2019-04-25T02:18:43.586Z,12.26
2019-04-25T02:19:44.178Z,12.25
2019-04-25T02:20:43.678Z,12.28
2019-04-25T02:21:43.465Z,12.29
2019-04-25T02:22:44.153Z,12.30
2019-04-25T02:23:44.153Z,12.21
2019-04-25T02:24:43.708Z,12.26
2019-04-25T02:25:44.266Z,12.23
2019-04-25T02:26:43.772Z,12.18
2019-04-25T02:27:44.203Z,12.13
2019-04-25T02:28:43.747Z,12.17
2019-04-25T02:29:44.702Z,12.15
2019-04-25T02:30:45.368Z,12.18
2019-04-25T02:31:44.964Z,12.15
2019-04-25T02:32:44.221Z,12.15
2019-04-25T02:33:44.264Z,12.13
2019-04-25T02:34:45.337Z,12.28
2019-04-25T02:35:46.332Z,12.14
2019-04-25T02:36:46.459Z,12.11
2019-04-25T02:37:45.038Z,12.21
2019-04-25T02:38:44.214Z,12.14
2019-04-25T02:39:44.779Z,12.13
2019-04-25T02:40:45.241Z,12.07
2019-04-25T02:41:44.507Z,12.13
2019-04-25T02:42:44.250Z,12.17
2019-04-25T02:43:45.089Z,12.15
2019-04-25T02:44:44.541Z,12.08
2019-04-25T02:45:44.221Z,12.14
2019-04-25T02:46:44.922Z,12.04
2019-04-25T02:47:43.785Z,12.04
2019-04-25T02:48:44.156Z,12.03
2019-04-25T02:49:44.639Z,12.00
2019-04-25T02:50:44.087Z,12.07
2019-04-25T02:51:44.973Z,12.04
2019-04-25T02:52:44.411Z,11.97
2019-04-25T02:53:44.635Z,11.89
2019-04-25T02:54:44.775Z,11.84
2019-04-25T02:55:44.653Z,11.91
2019-04-25T02:56:46.404Z,11.95
2019-04-25T02:57:44.696Z,11.91
2019-04-25T02:58:44.262Z,11.87
2019-04-25T02:59:44.869Z,11.87
2019-04-25T03:02:05.709Z,11.88
2019-04-25T03:03:06.799Z,11.91
2019-04-25T03:04:08.566Z,11.89
2019-04-25T03:05:08.111Z,11.84
2019-04-25T03:06:07.504Z,11.88
2019-04-25T03:07:07.439Z,11.73
2019-04-25T03:08:08.282Z,11.71
2019-04-25T03:09:06.475Z,11.82
2019-04-25T03:10:06.170Z,11.82
2019-04-25T03:11:05.883Z,11.76
2019-04-25T03:12:05.845Z,11.73
2019-04-25T03:13:07.969Z,11.84
2019-04-25T03:14:06.575Z,11.74
2019-04-25T03:15:06.685Z,11.82
2019-04-25T03:16:07.695Z,11.76
2019-04-25T03:17:05.184Z,11.74
2019-04-25T03:18:05.767Z,11.74
2019-04-25T03:19:05.997Z,11.70
2019-04-25T03:20:06.691Z,11.79
2019-04-25T03:21:06.250Z,11.69
2019-04-25T03:22:09.195Z,11.64
2019-04-25T03:23:07.003Z,11.73
2019-04-25T03:24:07.986Z,11.64
2019-04-25T03:25:06.959Z,11.61
2019-04-25T03:26:05.816Z,11.70
2019-04-25T03:27:04.886Z,11.58
2019-04-25T03:28:04.981Z,11.64
2019-04-25T03:29:03.869Z,11.61
2019-04-25T03:30:04.405Z,11.64
2019-04-25T03:31:10.618Z,11.67
2019-04-25T03:32:09.283Z,11.62
2019-04-25T03:33:09.409Z,11.71
2019-04-25T03:34:09.371Z,11.69
2019-04-25T03:35:05.567Z,11.62
2019-04-25T03:36:04.889Z,11.67
2019-04-25T03:37:05.232Z,11.51
2019-04-25T03:38:04.537Z,11.64
2019-04-25T03:39:04.273Z,11.62
2019-04-25T03:40:05.171Z,11.51
2019-04-25T03:41:04.835Z,11.52
2019-04-25T03:42:05.038Z,11.62
2019-04-25T03:43:04.835Z,11.58
2019-04-25T03:44:04.546Z,11.52
2019-04-25T03:45:04.707Z,11.55
2019-04-25T03:46:04.939Z,11.52
2019-04-25T03:47:05.874Z,11.52
2019-04-25T03:48:05.298Z,11.52
2019-04-25T03:49:04.929Z,11.55
2019-04-25T03:50:05.598Z,11.49
2019-04-25T03:51:05.398Z,11.59
2019-04-25T03:52:04.992Z,11.51
2019-04-25T03:53:04.531Z,11.54
2019-04-25T03:54:04.868Z,11.52
2019-04-25T03:55:05.140Z,11.45
2019-04-25T03:56:05.099Z,11.54
2019-04-25T03:57:05.269Z,11.51
2019-04-25T03:58:06.650Z,11.46
2019-04-25T03:59:05.851Z,11.52
2019-04-25T04:00:05.942Z,11.52
2019-04-25T04:01:06.603Z,11.49
2019-04-25T04:02:05.603Z,11.45
2019-04-25T04:03:05.701Z,11.48
2019-04-25T04:04:04.569Z,11.46
2019-04-25T04:05:04.834Z,11.45
2019-04-25T04:06:04.330Z,11.37
2019-04-25T04:07:04.426Z,11.41
2019-04-25T04:08:04.283Z,11.28
2019-04-25T04:09:06.485Z,11.41
2019-04-25T04:10:04.489Z,11.43
2019-04-25T04:11:05.010Z,11.36
2019-04-25T04:12:04.321Z,11.36
2019-04-25T04:13:04.214Z,11.36
2019-04-25T04:14:04.906Z,11.37
2019-04-25T04:15:04.715Z,11.34
2019-04-25T04:16:03.333Z,11.36
2019-04-25T04:17:05.080Z,11.31
2019-04-25T04:18:04.240Z,11.34
2019-04-25T04:19:04.006Z,11.38
2019-04-25T04:20:03.947Z,11.37
2019-04-25T04:21:03.206Z,11.34
2019-04-25T04:22:03.109Z,11.41
2019-04-25T04:23:03.204Z,11.30
2019-04-25T04:24:04.006Z,11.33
2019-04-25T04:25:03.764Z,11.34
2019-04-25T04:26:03.321Z,11.33
2019-04-25T04:27:04.244Z,11.28
2019-04-25T04:28:03.792Z,11.31
2019-04-25T04:29:03.041Z,11.34
2019-04-25T04:30:04.106Z,11.33
2019-04-25T04:31:03.697Z,11.38
2019-04-25T04:32:03.082Z,11.38
2019-04-25T04:33:03.626Z,11.34
2019-04-25T04:34:03.772Z,11.30
2019-04-25T04:35:03.496Z,11.34
2019-04-25T04:36:03.769Z,11.36
2019-04-25T04:37:03.700Z,11.33
2019-04-25T04:38:04.149Z,11.34
2019-04-25T04:39:03.860Z,11.31
2019-04-25T04:40:03.618Z,11.43
2019-04-25T04:41:03.846Z,11.49
2019-04-25T04:42:03.846Z,11.37
2019-04-25T04:43:02.354Z,11.48
2019-04-25T04:44:04.024Z,11.51
2019-04-25T04:45:03.603Z,11.51
2019-04-25T04:46:03.869Z,11.48
2019-04-25T04:47:05.023Z,11.43
2019-04-25T04:48:03.296Z,11.48
2019-04-25T04:49:03.778Z,11.43
2019-04-25T04:50:03.883Z,11.49
2019-04-25T04:51:03.409Z,11.54
2019-04-25T04:52:02.305Z,11.48
2019-04-25T04:53:03.840Z,11.52
2019-04-25T04:54:03.441Z,11.41
2019-04-25T04:55:06.449Z,11.45
2019-04-25T04:56:04.259Z,11.49
2019-04-25T04:57:16.671Z,11.46
2019-04-25T04:58:04.266Z,11.54
2019-04-25T04:59:03.711Z,11.58
2019-04-25T05:00:03.672Z,11.51
2019-04-25T05:01:03.601Z,11.62
2019-04-25T05:02:03.336Z,11.62
2019-04-25T05:03:02.111Z,11.59
2019-04-25T05:04:03.870Z,11.58
2019-04-25T05:05:03.615Z,11.66
2019-04-25T05:06:03.662Z,11.70
2019-04-25T05:07:03.601Z,11.64
2019-04-25T05:08:03.784Z,11.66
2019-04-25T05:09:03.588Z,11.73
2019-04-25T05:10:03.322Z,11.71
2019-04-25T05:11:02.006Z,11.76
2019-04-25T05:12:02.059Z,11.74
2019-04-25T05:13:01.994Z,11.73
2019-04-25T05:14:01.987Z,11.76
2019-04-25T05:15:03.695Z,11.74
2019-04-25T05:16:03.162Z,11.80
2019-04-25T05:17:02.030Z,11.84
2019-04-25T05:18:04.065Z,11.89
2019-04-25T05:19:03.652Z,11.89
2019-04-25T05:20:03.455Z,11.88
2019-04-25T05:21:01.971Z,11.88
2019-04-25T05:22:03.546Z,11.88
2019-04-25T05:23:03.173Z,11.91
2019-04-25T05:24:01.872Z,12.08
2019-04-25T05:25:03.442Z,11.99
2019-04-25T05:26:01.867Z,12.03
2019-04-25T05:27:01.854Z,12.03
2019-04-25T05:28:03.559Z,12.04
2019-04-25T05:29:01.833Z,12.10
2019-04-25T05:30:01.845Z,12.04
2019-04-25T05:31:03.379Z,12.13
2019-04-25T05:32:01.780Z,12.10
2019-04-25T05:33:01.786Z,12.22
2019-04-25T05:34:03.503Z,12.15
2019-04-25T05:35:03.377Z,12.21
2019-04-25T05:36:01.829Z,12.18
2019-04-25T05:37:01.804Z,12.25
2019-04-25T05:38:03.361Z,12.29
2019-04-25T05:39:01.725Z,12.25
2019-04-25T05:40:03.358Z,12.28
2019-04-25T05:41:01.780Z,12.28
2019-04-25T05:42:01.704Z,12.30
2019-04-25T05:43:03.219Z,12.32
2019-04-25T05:44:01.656Z,12.35
2019-04-25T05:45:01.632Z,12.33
2019-04-25T05:46:03.275Z,12.46
2019-04-25T05:47:01.738Z,12.47
2019-04-25T05:48:01.646Z,12.50
2019-04-25T05:49:03.499Z,12.48
2019-04-25T05:50:01.601Z,12.50
2019-04-25T05:51:01.577Z,12.55
2019-04-25T05:52:01.569Z,12.62
2019-04-25T05:53:01.569Z,12.62
2019-04-25T05:54:01.533Z,12.66
2019-04-25T05:55:01.539Z,12.68
2019-04-25T05:56:01.527Z,12.66
2019-04-25T05:57:01.537Z,12.68
2019-04-25T05:58:01.557Z,12.68
2019-04-25T05:59:01.517Z,12.72
2019-04-25T06:00:01.480Z,12.68
2019-04-25T06:01:03.294Z,12.83
2019-04-25T06:02:01.457Z,12.80
2019-04-25T06:03:01.466Z,12.88
2019-04-25T06:04:01.438Z,12.86
2019-04-25T06:05:01.432Z,12.93
2019-04-25T06:06:01.422Z,12.88
2019-04-25T06:07:01.397Z,12.88
2019-04-25T06:08:01.391Z,12.98
2019-04-25T06:09:01.373Z,13.02
2019-04-25T06:10:04.149Z,13.02
2019-04-25T06:11:01.384Z,13.01
2019-04-25T06:12:01.331Z,13.04
2019-04-25T06:13:03.477Z,13.17
2019-04-25T06:14:01.304Z,13.23
2019-04-25T06:15:01.299Z,13.16
2019-04-25T06:16:01.315Z,13.21
2019-04-25T06:17:01.297Z,13.20
2019-04-25T06:18:01.294Z,13.32
2019-04-25T06:19:13.017Z,13.29
2019-04-25T06:20:05.629Z,13.46
2019-04-25T06:21:01.275Z,13.40
2019-04-25T06:22:01.304Z,13.45
2019-04-25T06:23:01.229Z,13.53
2019-04-25T06:24:01.246Z,13.51
2019-04-25T06:25:01.181Z,13.49
2019-04-25T06:26:16.006Z,13.55
2019-04-25T06:27:03.785Z,13.51
2019-04-25T06:28:01.234Z,13.53
2019-04-25T06:29:01.185Z,13.49
2019-04-25T06:30:01.185Z,13.54
2019-04-25T06:31:01.148Z,13.55
2019-04-25T06:32:07.854Z,13.49
2019-04-25T06:33:03.336Z,13.65
2019-04-25T06:34:01.124Z,13.61
2019-04-25T06:35:01.069Z,13.71
2019-04-25T06:36:01.062Z,13.65
2019-04-25T06:37:02.460Z,13.80
2019-04-25T06:38:01.072Z,13.68
2019-04-25T06:39:01.047Z,13.90
2019-04-25T06:40:01.044Z,13.86
2019-04-25T06:41:01.031Z,13.93
2019-04-25T06:42:01.063Z,14.04
2019-04-25T06:43:01.007Z,14.04
2019-04-25T06:44:01.010Z,14.11
2019-04-25T06:45:01.006Z,14.26
2019-04-25T06:46:01.957Z,14.27
2019-04-25T06:47:03.392Z,14.30
2019-04-25T06:48:00.929Z,14.37
2019-04-25T06:49:03.425Z,14.44
2019-04-25T06:50:00.956Z,14.55
2019-04-25T06:51:00.938Z,14.58
2019-04-25T06:52:00.992Z,14.55
2019-04-25T06:53:00.893Z,14.63
2019-04-25T06:54:00.884Z,14.79
2019-04-25T06:55:03.305Z,14.79
2019-04-25T06:56:00.865Z,14.95
2019-04-25T06:57:00.825Z,14.89
2019-04-25T06:58:10.158Z,14.92
2019-04-25T06:59:03.478Z,15.04
2019-04-25T07:00:00.837Z,14.97
2019-04-25T07:01:01.140Z,15.11
2019-04-25T07:02:04.181Z,15.17
2019-04-25T07:03:00.789Z,15.19
2019-04-25T07:04:00.774Z,15.25
2019-04-25T07:05:00.757Z,15.20
2019-04-25T07:06:00.723Z,15.29
2019-04-25T07:07:10.496Z,15.29
2019-04-25T07:08:03.210Z,15.32
2019-04-25T07:09:00.719Z,15.41
2019-04-25T07:10:00.796Z,15.44
2019-04-25T07:11:00.724Z,15.51
2019-04-25T07:12:01.027Z,15.52
2019-04-25T07:13:00.669Z,15.56
2019-04-25T07:14:00.684Z,15.65
2019-04-25T07:15:00.655Z,15.59
2019-04-25T07:16:00.623Z,15.72
2019-04-25T07:17:00.696Z,15.77
2019-04-25T07:18:00.642Z,15.70
2019-04-25T07:19:01.094Z,15.78
2019-04-25T07:20:01.395Z,15.76
2019-04-25T07:21:00.601Z,15.78
2019-04-25T07:22:00.558Z,15.77
2019-04-25T07:23:00.621Z,15.85
2019-04-25T07:24:01.033Z,15.87
2019-04-25T07:25:00.566Z,15.93
2019-04-25T07:26:00.559Z,15.88
2019-04-25T07:27:00.621Z,15.95
2019-04-25T07:28:00.518Z,15.98
2019-04-25T07:29:00.515Z,15.96
2019-04-25T07:30:00.542Z,16.00
2019-04-25T07:31:00.451Z,15.99
2019-04-25T07:32:00.455Z,16.00
2019-04-25T07:33:02.019Z,16.08
2019-04-25T07:34:00.436Z,16.08
2019-04-25T07:35:00.436Z,16.13
2019-04-25T07:36:00.445Z,16.26
2019-04-25T07:37:00.464Z,16.25
2019-04-25T07:38:00.587Z,16.26
2019-04-25T07:39:08.190Z,16.24
2019-04-25T07:40:01.372Z,16.26
2019-04-25T07:41:00.377Z,16.39
2019-04-25T07:42:00.399Z,16.46
2019-04-25T07:43:00.340Z,16.43
2019-04-25T07:44:00.324Z,16.49
2019-04-25T07:45:00.425Z,16.51
2019-04-25T07:46:00.312Z,16.59
2019-04-25T07:47:00.394Z,16.64
2019-04-25T07:48:00.295Z,16.69
2019-04-25T07:49:00.277Z,16.70
2019-04-25T07:50:00.242Z,16.74
2019-04-25T07:51:00.305Z,16.79
2019-04-25T07:52:00.247Z,16.77
2019-04-25T07:53:00.292Z,16.76
2019-04-25T07:54:00.219Z,16.67
2019-04-25T07:55:00.238Z,16.67
2019-04-25T07:56:00.186Z,16.70
2019-04-25T07:57:00.192Z,16.65
2019-04-25T07:58:00.394Z,16.74
2019-04-25T07:59:00.171Z,16.65
2019-04-25T08:00:00.151Z,16.67
2019-04-25T08:01:00.126Z,16.69
2019-04-25T08:02:00.121Z,16.72
2019-04-25T08:04:19.626Z,16.74
2019-04-25T08:05:19.496Z,16.92
2019-04-25T08:06:22.041Z,16.95
2019-04-25T08:07:19.518Z,16.95
2019-04-25T08:08:20.269Z,17.07
2019-04-25T08:09:19.499Z,17.07
2019-04-25T08:10:19.527Z,17.04
2019-04-25T08:11:19.447Z,17.07
2019-04-25T08:12:19.457Z,17.13
2019-04-25T08:13:19.451Z,17.10
2019-04-25T08:14:19.468Z,17.01
2019-04-25T08:15:19.412Z,17.04
2019-04-25T08:16:19.411Z,16.97
2019-04-25T08:17:19.383Z,16.97
2019-04-25T08:18:19.379Z,17.04
2019-04-25T08:19:19.366Z,16.90
2019-04-25T08:20:19.342Z,16.88
2019-04-25T08:21:19.418Z,16.99
2019-04-25T08:22:19.308Z,16.94
2019-04-25T08:23:19.299Z,16.97
2019-04-25T08:24:19.313Z,16.91
2019-04-25T08:25:21.104Z,16.99
2019-04-25T08:26:19.341Z,17.04
2019-04-25T08:27:19.300Z,16.98
2019-04-25T08:28:19.275Z,17.10
2019-04-25T08:29:23.078Z,17.07
2019-04-25T08:30:19.260Z,17.12
2019-04-25T08:31:19.253Z,17.17
2019-04-25T08:32:19.225Z,17.13
2019-04-25T08:33:19.233Z,17.14
2019-04-25T08:34:19.182Z,17.19
2019-04-25T08:35:19.208Z,17.19
2019-04-25T08:36:19.234Z,17.20
2019-04-25T08:37:21.127Z,17.19
2019-04-25T08:38:19.136Z,17.19
2019-04-25T08:39:19.165Z,17.20
2019-04-25T08:40:19.139Z,17.17
2019-04-25T08:41:21.542Z,17.20
2019-04-25T08:42:19.132Z,17.30
2019-04-25T08:43:19.118Z,17.30
2019-04-25T08:44:19.089Z,17.31
2019-04-25T08:45:19.131Z,17.30
2019-04-25T08:46:19.142Z,17.32
2019-04-25T08:47:19.114Z,17.38
2019-04-25T08:48:19.057Z,17.43
2019-04-25T08:49:19.035Z,17.53
2019-04-25T08:50:28.841Z,17.50
2019-04-25T08:51:20.067Z,17.62
2019-04-25T08:52:19.073Z,17.59
2019-04-25T08:53:19.013Z,17.66
2019-04-25T08:54:18.984Z,17.72
2019-04-25T08:55:19.018Z,17.75
2019-04-25T08:56:18.965Z,17.88
2019-04-25T08:57:18.923Z,17.84
2019-04-25T08:58:18.927Z,17.90
2019-04-25T08:59:18.949Z,17.91
2019-04-25T09:00:18.939Z,17.88
2019-04-25T09:01:18.971Z,17.91
2019-04-25T09:02:18.906Z,17.94
2019-04-25T09:03:18.859Z,18.02
2019-04-25T09:04:18.909Z,18.03
2019-04-25T09:05:18.854Z,18.03
2019-04-25T09:06:18.850Z,18.01
2019-04-25T09:07:21.410Z,18.03
2019-04-25T09:08:19.306Z,18.05
2019-04-25T09:09:19.169Z,18.05
2019-04-25T09:10:19.248Z,18.05
2019-04-25T09:11:18.816Z,18.01
2019-04-25T09:12:18.807Z,17.99
2019-04-25T09:13:18.818Z,18.05
2019-04-25T09:14:19.739Z,17.99
2019-04-25T09:15:18.795Z,17.94
2019-04-25T09:16:18.780Z,17.93
2019-04-25T09:17:18.770Z,17.94
2019-04-25T09:18:18.748Z,18.01
2019-04-25T09:19:18.732Z,18.02
2019-04-25T09:20:18.707Z,17.99
2019-04-25T09:21:18.704Z,17.99
2019-04-25T09:22:18.743Z,18.02
2019-04-25T09:23:18.683Z,17.94
2019-04-25T09:24:19.697Z,18.01
2019-04-25T09:25:19.482Z,17.96
2019-04-25T09:26:18.920Z,17.93
2019-04-25T09:27:18.667Z,18.03
2019-04-25T09:28:18.625Z,18.02
2019-04-25T09:29:19.887Z,17.99
2019-04-25T09:30:18.619Z,18.03
2019-04-25T09:31:18.572Z,18.03
2019-04-25T09:32:18.581Z,17.94
2019-04-25T09:33:18.582Z,17.99
2019-04-25T09:34:18.525Z,18.05
2019-04-25T09:35:20.161Z,17.96
2019-04-25T09:36:23.641Z,18.03
2019-04-25T09:37:19.541Z,17.97
2019-04-25T09:38:18.505Z,18.01
2019-04-25T09:39:18.476Z,17.99
2019-04-25T09:40:18.523Z,17.99
2019-04-25T09:41:18.474Z,18.03
2019-04-25T09:42:18.493Z,18.03
2019-04-25T09:43:18.443Z,17.99
2019-04-25T09:44:18.439Z,18.05
2019-04-25T09:45:18.476Z,18.09
2019-04-25T09:46:18.451Z,18.01
2019-04-25T09:47:18.398Z,18.05
2019-04-25T09:48:18.934Z,18.23
2019-04-25T09:49:18.546Z,18.23
2019-04-25T09:50:18.839Z,18.30
2019-04-25T09:51:18.379Z,18.21
2019-04-25T09:52:21.205Z,18.27
2019-04-25T09:53:23.560Z,18.30
2019-04-25T09:54:19.357Z,18.31
2019-04-25T09:55:18.314Z,18.36
2019-04-25T09:56:18.294Z,18.43
2019-04-25T09:57:18.315Z,18.39
2019-04-25T09:58:18.324Z,18.56
2019-04-25T09:59:27.124Z,18.49
2019-04-25T10:00:19.250Z,18.43
2019-04-25T10:01:18.267Z,18.49
2019-04-25T10:02:18.233Z,18.54
2019-04-25T10:03:18.249Z,18.52
2019-04-25T10:04:18.210Z,18.58
2019-04-25T10:05:18.201Z,18.51
2019-04-25T10:06:18.181Z,18.39
2019-04-25T10:07:18.188Z,18.48
2019-04-25T10:08:18.203Z,18.38
2019-04-25T10:09:18.156Z,18.39
2019-04-25T10:10:18.144Z,18.31
2019-04-25T10:11:18.113Z,18.41
2019-04-25T10:12:18.121Z,18.36
2019-04-25T10:13:18.148Z,18.39
2019-04-25T10:14:18.098Z,18.49
2019-04-25T10:15:18.089Z,18.54
2019-04-25T10:16:18.063Z,18.49
2019-04-25T10:17:18.050Z,18.66
2019-04-25T10:18:18.088Z,18.56
2019-04-25T10:19:18.041Z,18.68
2019-04-25T10:20:18.021Z,18.68
2019-04-25T10:21:18.029Z,18.74
2019-04-25T10:22:18.007Z,18.75
2019-04-25T10:23:18.063Z,18.76
2019-04-25T10:24:17.973Z,18.75
2019-04-25T10:25:39.574Z,18.79
2019-04-25T10:26:18.000Z,18.82
2019-04-25T10:27:17.973Z,18.71
2019-04-25T10:28:17.979Z,18.75
2019-04-25T10:29:17.911Z,18.64
2019-04-25T10:30:23.148Z,18.61
2019-04-25T10:31:17.891Z,18.66
2019-04-25T10:32:17.946Z,18.43
2019-04-25T10:33:17.902Z,18.52
2019-04-25T10:34:17.885Z,18.38
2019-04-25T10:35:17.862Z,18.42
2019-04-25T10:36:17.861Z,18.30
2019-04-25T10:37:17.917Z,18.31
2019-04-25T10:38:22.254Z,18.30
2019-04-25T10:39:17.993Z,18.36
2019-04-25T10:40:17.795Z,18.30
2019-04-25T10:41:17.786Z,18.20
2019-04-25T10:42:17.777Z,18.23
2019-04-25T10:43:17.805Z,18.28
2019-04-25T10:44:17.808Z,18.27
2019-04-25T10:45:23.347Z,18.28
2019-04-25T10:46:18.759Z,18.30
2019-04-25T10:47:17.728Z,18.43
2019-04-25T10:48:17.731Z,18.38
2019-04-25T10:49:17.697Z,18.56
2019-04-25T10:50:17.684Z,18.60
2019-04-25T10:51:17.715Z,18.67
2019-04-25T10:52:17.691Z,18.68
2019-04-25T10:53:17.721Z,18.70
2019-04-25T10:54:18.200Z,18.71
2019-04-25T10:55:17.659Z,18.82
2019-04-25T10:56:17.618Z,18.81
2019-04-25T10:57:17.612Z,18.94
2019-04-25T10:58:17.625Z,18.96
2019-04-25T10:59:17.582Z,19.04
2019-04-25T11:00:17.612Z,19.13
2019-04-25T11:01:18.193Z,19.09
2019-04-25T11:02:17.554Z,19.23
2019-04-25T11:03:17.589Z,19.23
2019-04-25T11:04:17.579Z,19.26
2019-04-25T11:05:17.557Z,19.23
2019-04-25T11:06:17.523Z,19.32
2019-04-25T11:07:17.566Z,19.27
2019-04-25T11:08:17.518Z,19.19
2019-04-25T11:09:17.497Z,19.26
2019-04-25T11:10:17.504Z,19.27
2019-04-25T11:11:17.452Z,19.22
2019-04-25T11:12:17.466Z,19.16
2019-04-25T11:13:17.468Z,19.22
2019-04-25T11:14:17.451Z,19.23
2019-04-25T11:15:18.460Z,19.19
2019-04-25T11:16:17.397Z,19.22
2019-04-25T11:17:17.386Z,19.13
2019-04-25T11:18:17.393Z,19.24
2019-04-25T11:19:17.401Z,19.12
2019-04-25T11:20:17.355Z,19.15
2019-04-25T11:21:17.388Z,19.24
2019-04-25T11:22:17.333Z,19.17
2019-04-25T11:23:17.350Z,19.17
2019-04-25T11:24:17.312Z,19.26
2019-04-25T11:25:17.314Z,19.24
2019-04-25T11:26:17.287Z,19.34
2019-04-25T11:27:17.289Z,19.31
2019-04-25T11:28:17.294Z,19.34
2019-04-25T11:29:17.257Z,19.59
2019-04-25T11:30:17.248Z,19.52
2019-04-25T11:31:17.297Z,19.56
2019-04-25T11:32:19.677Z,19.57
2019-04-25T11:33:17.214Z,19.67
2019-04-25T11:34:17.695Z,19.64
2019-04-25T11:35:17.190Z,19.64
2019-04-25T11:36:17.176Z,19.59
2019-04-25T11:37:17.179Z,19.60
2019-04-25T11:38:17.166Z,19.67
2019-04-25T11:39:17.174Z,19.72
2019-04-25T11:40:17.133Z,19.70
2019-04-25T11:41:17.125Z,19.67
2019-04-25T11:42:17.129Z,19.74
2019-04-25T11:43:17.104Z,19.77
2019-04-25T11:44:17.124Z,19.75
2019-04-25T11:45:17.081Z,19.75
2019-04-25T11:46:17.071Z,19.86
2019-04-25T11:47:17.060Z,19.84
2019-04-25T11:48:17.054Z,19.81
2019-04-25T11:49:17.058Z,19.74
2019-04-25T11:50:17.031Z,19.77
2019-04-25T11:51:17.021Z,19.86
2019-04-25T11:52:26.951Z,19.86
2019-04-25T11:53:20.095Z,19.87
2019-04-25T11:54:17.006Z,19.97
2019-04-25T11:55:17.001Z,19.96
2019-04-25T11:56:16.971Z,20.07
2019-04-25T11:57:16.985Z,20.07
2019-04-25T11:58:16.984Z,20.09
2019-04-25T11:59:16.971Z,20.12
2019-04-25T12:00:22.195Z,20.09
2019-04-25T12:01:16.934Z,20.11
2019-04-25T12:02:16.893Z,20.11
2019-04-25T12:03:16.899Z,20.15
2019-04-25T12:04:16.900Z,20.12
2019-04-25T12:05:16.886Z,20.23
2019-04-25T12:06:16.852Z,20.30
2019-04-25T12:07:16.863Z,20.27
2019-04-25T12:08:16.845Z,20.30
2019-04-25T12:09:16.848Z,20.32
2019-04-25T12:10:16.829Z,20.36
2019-04-25T12:11:16.802Z,20.34
2019-04-25T12:12:16.824Z,20.34
2019-04-25T12:13:16.786Z,20.41
2019-04-25T12:14:16.799Z,20.32
2019-04-25T12:15:16.805Z,20.44
2019-04-25T12:16:16.770Z,20.37
2019-04-25T12:17:17.913Z,20.39
2019-04-25T12:18:16.754Z,20.27
2019-04-25T12:19:16.718Z,20.36
2019-04-25T12:20:16.721Z,20.29
2019-04-25T12:21:16.724Z,20.30
2019-04-25T12:22:16.692Z,20.18
2019-04-25T12:23:16.675Z,20.15
2019-04-25T12:24:17.749Z,20.22
2019-04-25T12:25:16.670Z,20.22
2019-04-25T12:26:16.634Z,20.25
2019-04-25T12:27:16.627Z,20.17
2019-04-25T12:28:16.652Z,20.12
2019-04-25T12:29:16.600Z,20.22
2019-04-25T12:30:16.613Z,20.19
2019-04-25T12:31:18.176Z,20.18
2019-04-25T12:32:16.570Z,20.17
2019-04-25T12:33:20.988Z,20.17
2019-04-25T12:34:17.243Z,20.26
2019-04-25T12:35:16.742Z,20.29
2019-04-25T12:36:16.529Z,20.23
2019-04-25T12:37:16.514Z,20.17
2019-04-25T12:38:20.408Z,20.25
2019-04-25T12:39:16.548Z,20.19
2019-04-25T12:40:16.480Z,20.19
2019-04-25T12:41:16.471Z,20.25
2019-04-25T12:42:16.472Z,20.14
2019-04-25T12:43:16.451Z,20.27
2019-04-25T12:44:16.445Z,20.30
2019-04-25T12:45:16.457Z,20.46
2019-04-25T12:46:16.415Z,20.41
2019-04-25T12:47:16.982Z,20.49
2019-04-25T12:48:16.428Z,20.49
2019-04-25T12:49:16.384Z,20.52
2019-04-25T12:50:18.656Z,20.58
2019-04-25T12:51:16.367Z,20.68
2019-04-25T12:52:16.348Z,20.70
2019-04-25T12:53:31.023Z,20.74
2019-04-25T12:54:17.342Z,20.65
2019-04-25T12:55:16.340Z,20.60